QFA918 YMML-YBSU
Flight info
| Callsign | QFA918 |
|---|---|
| Flight time | 2h 8m |
| Altitude | 37000 |
| Route | ML H66 IDNER W214 GOMOL Q69 SU |
| Aircraft | B738/M-SDE2E3FGHIRWXY/LB1 |
Departure
| Time | 2026-05-05 22:02 |
|---|---|
| Airport | Melbourne Airport (YMML) |
Arrival
| Time | 2026-05-06 00:10 |
|---|---|
| Airport | Sunshine Coast Airport (YBSU) |
| Time | Latitude | Longitude | Altitude | Speed | Heading |
|---|---|---|---|---|---|
| 2026-05-05 21:06 | -37.66764 | 144.85016 | 398 ft | 0 kts | 262° |
| 2026-05-05 21:54 | -37.66763 | 144.85026 | 394 ft | 4 kts | 262° |
| 2026-05-05 21:54 | -37.66761 | 144.85060 | 394 ft | 4 kts | 275° |
| 2026-05-05 21:54 | -37.66767 | 144.85086 | 397 ft | 4 kts | 339° |
| 2026-05-05 21:54 | -37.66773 | 144.85088 | 397 ft | 1 kts | 2° |
| 2026-05-05 21:58 | -37.66769 | 144.85089 | 397 ft | 2 kts | 2° |
| 2026-05-05 21:58 | -37.66746 | 144.85089 | 398 ft | 4 kts | 359° |
| 2026-05-05 21:59 | -37.66707 | 144.85083 | 398 ft | 7 kts | 350° |
| 2026-05-05 21:59 | -37.66655 | 144.85072 | 400 ft | 8 kts | 351° |
| 2026-05-05 21:59 | -37.66603 | 144.85062 | 402 ft | 7 kts | 352° |
| 2026-05-05 21:59 | -37.66553 | 144.85054 | 402 ft | 7 kts | 354° |
| 2026-05-05 22:00 | -37.66504 | 144.85048 | 405 ft | 7 kts | 352° |
| 2026-05-05 22:00 | -37.66461 | 144.85022 | 406 ft | 7 kts | 320° |
| 2026-05-05 22:00 | -37.66424 | 144.84984 | 408 ft | 7 kts | 323° |
| 2026-05-05 22:00 | -37.66372 | 144.84933 | 408 ft | 10 kts | 322° |
| 2026-05-05 22:01 | -37.66316 | 144.84879 | 409 ft | 10 kts | 322° |
| 2026-05-05 22:01 | -37.66262 | 144.84826 | 408 ft | 10 kts | 322° |
| 2026-05-05 22:01 | -37.66225 | 144.84760 | 409 ft | 10 kts | 274° |
| 2026-05-05 22:01 | -37.66208 | 144.84492 | 411 ft | 66 kts | 274° |
| 2026-05-05 22:02 | -37.66156 | 144.83593 | 408 ft | 135 kts | 274° |
| 2026-05-05 22:02 | -37.66076 | 144.82225 | 725 ft | 164 kts | 275° |
| 2026-05-05 22:02 | -37.65988 | 144.80778 | 1518 ft | 166 kts | 275° |
| 2026-05-05 22:02 | -37.65898 | 144.79243 | 1935 ft | 188 kts | 273° |
| 2026-05-05 22:03 | -37.65798 | 144.77500 | 2175 ft | 210 kts | 273° |
| 2026-05-05 22:03 | -37.65689 | 144.75581 | 2370 ft | 228 kts | 273° |
| 2026-05-05 22:03 | -37.65572 | 144.73522 | 2573 ft | 245 kts | 273° |
| 2026-05-05 22:03 | -37.65448 | 144.71318 | 2999 ft | 256 kts | 274° |
| 2026-05-05 22:04 | -37.65327 | 144.69178 | 3719 ft | 256 kts | 274° |
| 2026-05-05 22:04 | -37.64967 | 144.66992 | 4415 ft | 258 kts | 297° |
| 2026-05-05 22:04 | -37.63775 | 144.65308 | 5102 ft | 262 kts | 325° |
| 2026-05-05 22:04 | -37.62122 | 144.64320 | 5791 ft | 266 kts | 341° |
| 2026-05-05 22:05 | -37.60339 | 144.63657 | 6473 ft | 269 kts | 343° |
| 2026-05-05 22:05 | -37.58527 | 144.63019 | 7156 ft | 272 kts | 343° |
| 2026-05-05 22:05 | -37.56720 | 144.62376 | 7862 ft | 275 kts | 345° |
| 2026-05-05 22:05 | -37.54799 | 144.62311 | 8533 ft | 283 kts | 12° |
| 2026-05-05 22:06 | -37.53039 | 144.63419 | 9272 ft | 288 kts | 39° |
| 2026-05-05 22:06 | -37.51700 | 144.65317 | 9979 ft | 293 kts | 51° |
| 2026-05-05 22:06 | -37.50457 | 144.67408 | 10433 ft | 309 kts | 52° |
| 2026-05-05 22:06 | -37.49927 | 144.68313 | 10491 ft | 319 kts | 52° |
| 2026-05-05 22:07 | -37.48570 | 144.70619 | 10671 ft | 340 kts | 52° |
| 2026-05-05 22:07 | -37.47099 | 144.73049 | 10958 ft | 356 kts | 49° |
| 2026-05-05 22:07 | -37.45439 | 144.75391 | 11544 ft | 361 kts | 45° |
| 2026-05-05 22:08 | -37.43691 | 144.77669 | 12264 ft | 363 kts | 44° |
| 2026-05-05 22:08 | -37.41916 | 144.79941 | 12976 ft | 365 kts | 44° |
| 2026-05-05 22:08 | -37.40132 | 144.82229 | 13669 ft | 368 kts | 44° |
| 2026-05-05 22:08 | -37.38335 | 144.84550 | 14378 ft | 371 kts | 44° |
| 2026-05-05 22:09 | -37.36533 | 144.86896 | 15076 ft | 375 kts | 44° |
| 2026-05-05 22:09 | -37.34718 | 144.89267 | 15770 ft | 378 kts | 45° |
| 2026-05-05 22:09 | -37.32890 | 144.91661 | 16463 ft | 381 kts | 45° |
| 2026-05-05 22:09 | -37.31049 | 144.94076 | 17129 ft | 384 kts | 45° |
| 2026-05-05 22:10 | -37.29194 | 144.96509 | 17782 ft | 387 kts | 45° |
| 2026-05-05 22:10 | -37.27322 | 144.98963 | 18400 ft | 391 kts | 45° |
| 2026-05-05 22:10 | -37.25432 | 145.01437 | 19005 ft | 394 kts | 45° |
| 2026-05-05 22:10 | -37.23526 | 145.03931 | 19578 ft | 398 kts | 45° |
| 2026-05-05 22:11 | -37.21600 | 145.06448 | 20152 ft | 401 kts | 45° |
| 2026-05-05 22:11 | -37.19663 | 145.08978 | 20698 ft | 404 kts | 45° |
| 2026-05-05 22:11 | -37.17707 | 145.11532 | 21237 ft | 407 kts | 45° |
| 2026-05-05 22:11 | -37.15736 | 145.14104 | 21753 ft | 411 kts | 45° |
| 2026-05-05 22:12 | -37.13751 | 145.16691 | 22269 ft | 413 kts | 45° |
| 2026-05-05 22:12 | -37.11751 | 145.19298 | 22751 ft | 416 kts | 44° |
| 2026-05-05 22:12 | -37.09736 | 145.21918 | 23224 ft | 419 kts | 44° |
| 2026-05-05 22:12 | -37.07705 | 145.24556 | 23691 ft | 422 kts | 44° |
| 2026-05-05 22:13 | -37.05566 | 145.27084 | 24145 ft | 424 kts | 39° |
| 2026-05-05 22:13 | -37.03300 | 145.29466 | 24576 ft | 426 kts | 38° |
| 2026-05-05 22:13 | -37.00981 | 145.31796 | 25003 ft | 429 kts | 37° |
| 2026-05-05 22:13 | -36.98636 | 145.34130 | 25403 ft | 432 kts | 37° |
| 2026-05-05 22:14 | -36.96283 | 145.36484 | 25797 ft | 435 kts | 37° |
| 2026-05-05 22:14 | -36.93922 | 145.38870 | 26179 ft | 438 kts | 38° |
| 2026-05-05 22:14 | -36.91556 | 145.41281 | 26533 ft | 441 kts | 38° |
| 2026-05-05 22:14 | -36.89177 | 145.43717 | 26888 ft | 443 kts | 38° |
| 2026-05-05 22:15 | -36.86791 | 145.46169 | 27227 ft | 446 kts | 38° |
| 2026-05-05 22:15 | -36.84389 | 145.48639 | 27562 ft | 448 kts | 38° |
| 2026-05-05 22:15 | -36.82006 | 145.51090 | 27888 ft | 451 kts | 38° |
| 2026-05-05 22:15 | -36.79583 | 145.53582 | 28197 ft | 453 kts | 38° |
| 2026-05-05 22:16 | -36.77142 | 145.56088 | 28491 ft | 456 kts | 38° |
| 2026-05-05 22:16 | -36.74688 | 145.58605 | 28799 ft | 458 kts | 38° |
| 2026-05-05 22:16 | -36.72221 | 145.61132 | 29083 ft | 460 kts | 38° |
| 2026-05-05 22:16 | -36.69740 | 145.63670 | 29356 ft | 462 kts | 38° |
| 2026-05-05 22:17 | -36.67249 | 145.66218 | 29613 ft | 465 kts | 38° |
| 2026-05-05 22:17 | -36.64742 | 145.68779 | 29872 ft | 467 kts | 38° |
| 2026-05-05 22:17 | -36.62223 | 145.71350 | 30128 ft | 469 kts | 38° |
| 2026-05-05 22:17 | -36.59700 | 145.73924 | 30435 ft | 469 kts | 38° |
| 2026-05-05 22:18 | -36.57175 | 145.76497 | 30819 ft | 468 kts | 38° |
| 2026-05-05 22:18 | -36.54660 | 145.79058 | 31193 ft | 467 kts | 38° |
| 2026-05-05 22:18 | -36.52152 | 145.81609 | 31511 ft | 467 kts | 38° |
| 2026-05-05 22:18 | -36.49637 | 145.84165 | 31807 ft | 467 kts | 38° |
| 2026-05-05 22:19 | -36.47121 | 145.86718 | 32128 ft | 467 kts | 38° |
| 2026-05-05 22:19 | -36.44609 | 145.89266 | 32444 ft | 466 kts | 38° |
| 2026-05-05 22:19 | -36.42109 | 145.91800 | 32758 ft | 465 kts | 38° |
| 2026-05-05 22:19 | -36.39592 | 145.94349 | 33061 ft | 465 kts | 38° |
| 2026-05-05 22:20 | -36.37087 | 145.96886 | 33341 ft | 465 kts | 38° |
| 2026-05-05 22:20 | -36.34581 | 145.99421 | 33629 ft | 464 kts | 38° |
| 2026-05-05 22:20 | -36.32076 | 146.01951 | 33931 ft | 464 kts | 38° |
| 2026-05-05 22:20 | -36.29579 | 146.04472 | 34213 ft | 464 kts | 38° |
| 2026-05-05 22:21 | -36.27075 | 146.06996 | 34465 ft | 464 kts | 38° |
| 2026-05-05 22:21 | -36.24573 | 146.09514 | 34713 ft | 464 kts | 38° |
| 2026-05-05 22:21 | -36.22070 | 146.12035 | 35001 ft | 463 kts | 37° |
| 2026-05-05 22:22 | -36.21276 | 146.12833 | 35073 ft | 463 kts | 37° |
| 2026-05-05 22:22 | -36.18779 | 146.15345 | 35341 ft | 462 kts | 37° |
| 2026-05-05 22:22 | -36.16284 | 146.17852 | 35583 ft | 462 kts | 37° |
| 2026-05-05 22:22 | -36.13790 | 146.20357 | 35813 ft | 462 kts | 37° |
| 2026-05-05 22:23 | -36.11296 | 146.22860 | 36048 ft | 461 kts | 37° |
| 2026-05-05 22:23 | -36.08801 | 146.25360 | 36279 ft | 461 kts | 37° |
| 2026-05-05 22:23 | -36.06310 | 146.27854 | 36478 ft | 461 kts | 37° |
| 2026-05-05 22:23 | -36.03815 | 146.30351 | 36665 ft | 462 kts | 37° |
| 2026-05-05 22:24 | -36.02161 | 146.32005 | 36817 ft | 461 kts | 37° |
| 2026-05-05 22:24 | -35.99670 | 146.34495 | 37091 ft | 459 kts | 37° |
| 2026-05-05 22:24 | -35.97190 | 146.36971 | 37251 ft | 460 kts | 37° |
| 2026-05-05 22:25 | -35.92191 | 146.41955 | 37239 ft | 461 kts | 37° |
| 2026-05-05 22:25 | -35.87235 | 146.46890 | 37227 ft | 453 kts | 37° |
| 2026-05-05 22:26 | -35.82351 | 146.51744 | 37245 ft | 449 kts | 37° |
| 2026-05-05 22:26 | -35.77497 | 146.56561 | 37234 ft | 447 kts | 37° |
| 2026-05-05 22:27 | -35.72652 | 146.61357 | 37244 ft | 447 kts | 37° |
| 2026-05-05 22:27 | -35.67805 | 146.66150 | 37245 ft | 447 kts | 37° |
| 2026-05-05 22:28 | -35.62945 | 146.70950 | 37246 ft | 449 kts | 37° |
| 2026-05-05 22:28 | -35.58064 | 146.75763 | 37244 ft | 451 kts | 37° |
| 2026-05-05 22:29 | -35.53153 | 146.80598 | 37245 ft | 453 kts | 37° |
| 2026-05-05 22:29 | -35.48254 | 146.85415 | 37245 ft | 455 kts | 37° |
| 2026-05-05 22:30 | -35.43271 | 146.90303 | 37243 ft | 457 kts | 37° |
| 2026-05-05 22:30 | -35.38330 | 146.95134 | 37239 ft | 458 kts | 37° |
| 2026-05-05 22:31 | -35.33321 | 147.00028 | 37236 ft | 458 kts | 37° |
| 2026-05-05 22:31 | -35.28375 | 147.04853 | 37238 ft | 457 kts | 37° |
| 2026-05-05 22:32 | -35.23406 | 147.09694 | 37240 ft | 456 kts | 37° |
| 2026-05-05 22:32 | -35.18441 | 147.14525 | 37239 ft | 455 kts | 37° |
| 2026-05-05 22:33 | -35.13486 | 147.19337 | 37235 ft | 455 kts | 37° |
| 2026-05-05 22:33 | -35.08538 | 147.24135 | 37240 ft | 454 kts | 37° |
| 2026-05-05 22:34 | -35.03601 | 147.28915 | 37244 ft | 453 kts | 36° |
| 2026-05-05 22:34 | -34.98664 | 147.33686 | 37238 ft | 452 kts | 36° |
| 2026-05-05 22:35 | -34.93730 | 147.38448 | 37237 ft | 452 kts | 36° |
| 2026-05-05 22:35 | -34.88804 | 147.43196 | 37243 ft | 452 kts | 36° |
| 2026-05-05 22:36 | -34.83866 | 147.47944 | 37239 ft | 452 kts | 36° |
| 2026-05-05 22:36 | -34.78959 | 147.52657 | 37240 ft | 452 kts | 36° |
| 2026-05-05 22:37 | -34.77656 | 147.53908 | 37240 ft | 452 kts | 36° |
| 2026-05-05 22:37 | -34.73000 | 147.58370 | 37239 ft | 452 kts | 36° |
| 2026-05-05 22:38 | -34.68056 | 147.63103 | 37245 ft | 453 kts | 36° |
| 2026-05-05 22:38 | -34.63102 | 147.67838 | 37239 ft | 453 kts | 36° |
| 2026-05-05 22:39 | -34.58161 | 147.72552 | 37240 ft | 454 kts | 36° |
| 2026-05-05 22:39 | -34.53192 | 147.77286 | 37239 ft | 454 kts | 36° |
| 2026-05-05 22:40 | -34.48219 | 147.82018 | 37244 ft | 455 kts | 36° |
| 2026-05-05 22:40 | -34.43239 | 147.86747 | 37242 ft | 455 kts | 36° |
| 2026-05-05 22:41 | -34.38278 | 147.91451 | 37242 ft | 455 kts | 36° |
| 2026-05-05 22:41 | -34.33366 | 147.96100 | 37238 ft | 455 kts | 36° |
| 2026-05-05 22:42 | -34.28308 | 148.00882 | 37238 ft | 454 kts | 36° |
| 2026-05-05 22:42 | -34.23433 | 148.05482 | 37245 ft | 454 kts | 36° |
| 2026-05-05 22:43 | -34.18389 | 148.10239 | 37240 ft | 454 kts | 36° |
| 2026-05-05 22:43 | -34.13413 | 148.14922 | 37239 ft | 454 kts | 36° |
| 2026-05-05 22:44 | -34.08497 | 148.19539 | 37240 ft | 454 kts | 36° |
| 2026-05-05 22:44 | -34.03514 | 148.24213 | 37234 ft | 454 kts | 36° |
| 2026-05-05 22:45 | -33.98529 | 148.28882 | 37231 ft | 454 kts | 36° |
| 2026-05-05 22:45 | -33.93543 | 148.33547 | 37231 ft | 454 kts | 36° |
| 2026-05-05 22:46 | -33.88601 | 148.38162 | 37227 ft | 454 kts | 36° |
| 2026-05-05 22:46 | -33.84147 | 148.42315 | 37232 ft | 453 kts | 36° |
| 2026-05-05 22:47 | -33.79160 | 148.46959 | 37232 ft | 453 kts | 36° |
| 2026-05-05 22:47 | -33.74177 | 148.51593 | 37226 ft | 453 kts | 36° |
| 2026-05-05 22:48 | -33.69194 | 148.56222 | 37232 ft | 453 kts | 35° |
| 2026-05-05 22:48 | -33.64205 | 148.60844 | 37227 ft | 453 kts | 35° |
| 2026-05-05 22:49 | -33.59211 | 148.65464 | 37225 ft | 454 kts | 35° |
| 2026-05-05 22:49 | -33.54206 | 148.70089 | 37220 ft | 454 kts | 35° |
| 2026-05-05 22:50 | -33.49206 | 148.74704 | 37220 ft | 454 kts | 35° |
| 2026-05-05 22:50 | -33.44198 | 148.79320 | 37224 ft | 454 kts | 35° |
| 2026-05-05 22:51 | -33.39185 | 148.83932 | 37223 ft | 455 kts | 35° |
| 2026-05-05 22:51 | -33.34160 | 148.88549 | 37222 ft | 455 kts | 35° |
| 2026-05-05 22:52 | -33.33142 | 148.89485 | 37222 ft | 456 kts | 35° |
| 2026-05-05 22:52 | -33.28888 | 148.93387 | 37213 ft | 456 kts | 35° |
| 2026-05-05 22:53 | -33.23847 | 148.98000 | 37211 ft | 457 kts | 34° |
| 2026-05-05 22:53 | -33.18839 | 149.02579 | 37215 ft | 457 kts | 34° |
| 2026-05-05 22:54 | -33.13813 | 149.07169 | 37211 ft | 457 kts | 34° |
| 2026-05-05 22:54 | -33.08768 | 149.11769 | 37212 ft | 457 kts | 34° |
| 2026-05-05 22:55 | -33.03715 | 149.16370 | 37209 ft | 457 kts | 34° |
| 2026-05-05 22:55 | -32.98668 | 149.20959 | 37215 ft | 456 kts | 34° |
| 2026-05-05 22:56 | -32.93897 | 149.25290 | 37210 ft | 456 kts | 34° |
| 2026-05-05 22:56 | -32.88848 | 149.29867 | 37216 ft | 456 kts | 34° |
| 2026-05-05 22:57 | -32.83862 | 149.34379 | 37208 ft | 456 kts | 34° |
| 2026-05-05 22:57 | -32.78751 | 149.39000 | 37215 ft | 456 kts | 34° |
| 2026-05-05 22:58 | -32.73697 | 149.43561 | 37213 ft | 456 kts | 34° |
| 2026-05-05 22:58 | -32.68645 | 149.48115 | 37215 ft | 456 kts | 34° |
| 2026-05-05 22:59 | -32.63585 | 149.52670 | 37213 ft | 457 kts | 34° |
| 2026-05-05 22:59 | -32.58516 | 149.57228 | 37211 ft | 457 kts | 34° |
| 2026-05-05 23:00 | -32.50836 | 149.63919 | 37215 ft | 456 kts | 32° |
| 2026-05-05 23:00 | -32.45646 | 149.68235 | 37211 ft | 456 kts | 31° |
| 2026-05-05 23:01 | -32.40482 | 149.72539 | 37212 ft | 456 kts | 32° |
| 2026-05-05 23:01 | -32.35270 | 149.76903 | 37214 ft | 456 kts | 32° |
| 2026-05-05 23:02 | -32.30110 | 149.81228 | 37210 ft | 457 kts | 32° |
| 2026-05-05 23:02 | -32.24956 | 149.85543 | 37210 ft | 457 kts | 31° |
| 2026-05-05 23:03 | -32.19763 | 149.89881 | 37205 ft | 458 kts | 31° |
| 2026-05-05 23:03 | -32.14563 | 149.94221 | 37200 ft | 457 kts | 31° |
| 2026-05-05 23:04 | -32.09367 | 149.98551 | 37203 ft | 457 kts | 31° |
| 2026-05-05 23:04 | -32.04168 | 150.02877 | 37203 ft | 457 kts | 31° |
| 2026-05-05 23:05 | -31.98934 | 150.07225 | 37203 ft | 457 kts | 31° |
| 2026-05-05 23:05 | -31.93772 | 150.11508 | 37203 ft | 457 kts | 31° |
| 2026-05-05 23:06 | -31.88573 | 150.15819 | 37198 ft | 457 kts | 31° |
| 2026-05-05 23:06 | -31.85173 | 150.18633 | 37196 ft | 457 kts | 31° |
| 2026-05-05 23:07 | -31.83526 | 150.19996 | 37200 ft | 458 kts | 31° |
| 2026-05-05 23:07 | -31.78316 | 150.24301 | 37191 ft | 458 kts | 31° |
| 2026-05-05 23:08 | -31.73146 | 150.28560 | 37195 ft | 457 kts | 31° |
| 2026-05-05 23:08 | -31.67937 | 150.32844 | 37197 ft | 457 kts | 31° |
| 2026-05-05 23:09 | -31.62733 | 150.37121 | 37172 ft | 457 kts | 31° |
| 2026-05-05 23:09 | -31.58403 | 150.40674 | 37180 ft | 457 kts | 31° |
| 2026-05-05 23:10 | -31.53202 | 150.44947 | 37185 ft | 457 kts | 31° |
| 2026-05-05 23:10 | -31.47994 | 150.49223 | 37194 ft | 457 kts | 31° |
| 2026-05-05 23:11 | -31.42785 | 150.53493 | 37182 ft | 457 kts | 31° |
| 2026-05-05 23:11 | -31.37578 | 150.57756 | 37195 ft | 457 kts | 31° |
| 2026-05-05 23:12 | -31.32362 | 150.62019 | 37176 ft | 458 kts | 31° |
| 2026-05-05 23:12 | -31.27145 | 150.66278 | 37196 ft | 458 kts | 31° |
| 2026-05-05 23:13 | -31.21919 | 150.70539 | 37183 ft | 458 kts | 31° |
| 2026-05-05 23:13 | -31.16693 | 150.74794 | 37183 ft | 458 kts | 31° |
| 2026-05-05 23:14 | -31.11456 | 150.79055 | 37185 ft | 459 kts | 31° |
| 2026-05-05 23:14 | -31.06241 | 150.83339 | 37179 ft | 461 kts | 34° |
| 2026-05-05 23:15 | -31.01396 | 150.88277 | 37183 ft | 463 kts | 38° |
| 2026-05-05 23:15 | -30.96627 | 150.93325 | 37176 ft | 463 kts | 38° |
| 2026-05-05 23:16 | -30.91838 | 150.98354 | 37164 ft | 464 kts | 38° |
| 2026-05-05 23:16 | -30.87022 | 151.03368 | 37156 ft | 464 kts | 37° |
| 2026-05-05 23:17 | -30.82200 | 151.08369 | 37147 ft | 464 kts | 37° |
| 2026-05-05 23:17 | -30.77383 | 151.13355 | 37159 ft | 464 kts | 37° |
| 2026-05-05 23:18 | -30.72562 | 151.18339 | 37159 ft | 463 kts | 37° |
| 2026-05-05 23:18 | -30.67746 | 151.23312 | 37157 ft | 463 kts | 37° |
| 2026-05-05 23:19 | -30.62934 | 151.28276 | 37161 ft | 463 kts | 37° |
| 2026-05-05 23:19 | -30.58149 | 151.33204 | 37160 ft | 462 kts | 37° |
| 2026-05-05 23:20 | -30.53337 | 151.38153 | 37164 ft | 462 kts | 37° |
| 2026-05-05 23:20 | -30.48523 | 151.43098 | 37168 ft | 462 kts | 37° |
| 2026-05-05 23:21 | -30.43706 | 151.48039 | 37172 ft | 463 kts | 37° |
| 2026-05-05 23:21 | -30.40015 | 151.51821 | 37170 ft | 463 kts | 37° |
| 2026-05-05 23:22 | -30.38016 | 151.53869 | 37167 ft | 463 kts | 37° |
| 2026-05-05 23:22 | -30.33182 | 151.58813 | 37164 ft | 463 kts | 37° |
| 2026-05-05 23:23 | -30.28347 | 151.63751 | 37168 ft | 464 kts | 37° |
| 2026-05-05 23:23 | -30.23507 | 151.68688 | 37168 ft | 464 kts | 37° |
| 2026-05-05 23:24 | -30.18664 | 151.73624 | 37165 ft | 464 kts | 37° |
| 2026-05-05 23:24 | -30.13826 | 151.78549 | 37168 ft | 464 kts | 37° |
| 2026-05-05 23:25 | -30.08984 | 151.83472 | 37162 ft | 464 kts | 37° |
| 2026-05-05 23:25 | -30.04137 | 151.88394 | 37164 ft | 464 kts | 37° |
| 2026-05-05 23:26 | -29.99289 | 151.93310 | 37171 ft | 464 kts | 37° |
| 2026-05-05 23:26 | -29.94441 | 151.98219 | 37171 ft | 464 kts | 37° |
| 2026-05-05 23:27 | -29.89585 | 152.03130 | 37161 ft | 464 kts | 36° |
| 2026-05-05 23:27 | -29.84765 | 152.08001 | 37167 ft | 464 kts | 37° |
| 2026-05-05 23:28 | -29.79908 | 152.12897 | 37162 ft | 464 kts | 36° |
| 2026-05-05 23:28 | -29.75045 | 152.17781 | 37162 ft | 464 kts | 36° |
| 2026-05-05 23:29 | -29.70185 | 152.22649 | 37164 ft | 463 kts | 36° |
| 2026-05-05 23:29 | -29.65324 | 152.27519 | 37169 ft | 463 kts | 36° |
| 2026-05-05 23:30 | -29.60458 | 152.32386 | 37171 ft | 464 kts | 36° |
| 2026-05-05 23:30 | -29.55586 | 152.37254 | 37163 ft | 464 kts | 36° |
| 2026-05-05 23:31 | -29.50711 | 152.42122 | 37162 ft | 465 kts | 36° |
| 2026-05-05 23:31 | -29.45829 | 152.46986 | 37161 ft | 465 kts | 36° |
| 2026-05-05 23:32 | -29.40940 | 152.51854 | 37173 ft | 465 kts | 36° |
| 2026-05-05 23:32 | -29.36044 | 152.56720 | 37168 ft | 466 kts | 36° |
| 2026-05-05 23:33 | -29.31139 | 152.61590 | 37171 ft | 467 kts | 36° |
| 2026-05-05 23:33 | -29.26232 | 152.66457 | 37168 ft | 467 kts | 36° |
| 2026-05-05 23:34 | -29.21313 | 152.71329 | 37157 ft | 468 kts | 36° |
| 2026-05-05 23:34 | -29.16422 | 152.76166 | 37160 ft | 468 kts | 36° |
| 2026-05-05 23:35 | -29.11477 | 152.81071 | 37155 ft | 467 kts | 36° |
| 2026-05-05 23:35 | -29.06609 | 152.85901 | 37144 ft | 468 kts | 36° |
| 2026-05-05 23:36 | -29.01689 | 152.90776 | 37149 ft | 467 kts | 36° |
| 2026-05-05 23:36 | -28.98167 | 152.94261 | 37150 ft | 467 kts | 36° |
| 2026-05-05 23:37 | -28.96720 | 152.95691 | 37146 ft | 467 kts | 36° |
| 2026-05-05 23:37 | -28.92091 | 153.00268 | 37149 ft | 467 kts | 36° |
| 2026-05-05 23:38 | -28.87500 | 153.04732 | 37140 ft | 464 kts | 32° |
| 2026-05-05 23:38 | -28.82046 | 153.08505 | 37138 ft | 457 kts | 23° |
| 2026-05-05 23:39 | -28.76764 | 153.11839 | 37141 ft | 457 kts | 23° |
| 2026-05-05 23:39 | -28.72019 | 153.14865 | 37138 ft | 458 kts | 24° |
| 2026-05-05 23:40 | -28.66478 | 153.18440 | 37133 ft | 458 kts | 24° |
| 2026-05-05 23:40 | -28.60938 | 153.22028 | 37139 ft | 458 kts | 24° |
| 2026-05-05 23:41 | -28.55396 | 153.25615 | 37140 ft | 459 kts | 24° |
| 2026-05-05 23:41 | -28.51855 | 153.27903 | 37132 ft | 459 kts | 24° |
| 2026-05-05 23:42 | -28.48809 | 153.29870 | 37133 ft | 459 kts | 24° |
| 2026-05-05 23:42 | -28.43246 | 153.33459 | 37132 ft | 460 kts | 24° |
| 2026-05-05 23:43 | -28.37679 | 153.37046 | 37129 ft | 460 kts | 24° |
| 2026-05-05 23:43 | -28.32106 | 153.40632 | 37128 ft | 461 kts | 24° |
| 2026-05-05 23:44 | -28.26523 | 153.44222 | 37131 ft | 461 kts | 24° |
| 2026-05-05 23:44 | -28.20942 | 153.47798 | 37129 ft | 460 kts | 22° |
| 2026-05-05 23:45 | -28.18035 | 153.49250 | 36953 ft | 455 kts | 12° |
| 2026-05-05 23:45 | -28.14979 | 153.50133 | 36378 ft | 449 kts | 3° |
| 2026-05-05 23:45 | -28.11905 | 153.50473 | 35767 ft | 441 kts | 354° |
| 2026-05-05 23:45 | -28.08841 | 153.50426 | 35109 ft | 440 kts | 354° |
| 2026-05-05 23:46 | -28.05780 | 153.50352 | 34418 ft | 440 kts | 354° |
| 2026-05-05 23:46 | -28.02714 | 153.50281 | 33715 ft | 441 kts | 354° |
| 2026-05-05 23:46 | -27.99637 | 153.50222 | 32987 ft | 442 kts | 354° |
| 2026-05-05 23:46 | -27.96602 | 153.50176 | 32345 ft | 442 kts | 355° |
| 2026-05-05 23:47 | -27.93544 | 153.50138 | 31826 ft | 438 kts | 355° |
| 2026-05-05 23:47 | -27.90506 | 153.50105 | 31280 ft | 434 kts | 355° |
| 2026-05-05 23:47 | -27.87495 | 153.50074 | 30770 ft | 431 kts | 355° |
| 2026-05-05 23:47 | -27.84513 | 153.50043 | 30248 ft | 427 kts | 355° |
| 2026-05-05 23:48 | -27.81553 | 153.50013 | 29744 ft | 424 kts | 355° |
| 2026-05-05 23:48 | -27.78618 | 153.49981 | 29218 ft | 420 kts | 355° |
| 2026-05-05 23:48 | -27.75708 | 153.49950 | 28691 ft | 416 kts | 355° |
| 2026-05-05 23:48 | -27.72827 | 153.49918 | 28171 ft | 413 kts | 355° |
| 2026-05-05 23:49 | -27.69965 | 153.49887 | 27654 ft | 410 kts | 355° |
| 2026-05-05 23:49 | -27.67129 | 153.49856 | 27128 ft | 406 kts | 355° |
| 2026-05-05 23:49 | -27.64311 | 153.49825 | 26612 ft | 403 kts | 355° |
| 2026-05-05 23:49 | -27.61519 | 153.49794 | 26096 ft | 400 kts | 355° |
| 2026-05-05 23:50 | -27.58742 | 153.49764 | 25583 ft | 397 kts | 355° |
| 2026-05-05 23:50 | -27.55989 | 153.49734 | 25071 ft | 394 kts | 355° |
| 2026-05-05 23:50 | -27.53256 | 153.49705 | 24562 ft | 391 kts | 355° |
| 2026-05-05 23:50 | -27.50539 | 153.49679 | 23977 ft | 391 kts | 355° |
| 2026-05-05 23:51 | -27.47833 | 153.49660 | 23475 ft | 387 kts | 356° |
| 2026-05-05 23:51 | -27.45148 | 153.49643 | 22971 ft | 385 kts | 356° |
| 2026-05-05 23:51 | -27.42480 | 153.49627 | 22477 ft | 382 kts | 356° |
| 2026-05-05 23:51 | -27.39832 | 153.49610 | 21989 ft | 379 kts | 356° |
| 2026-05-05 23:52 | -27.37201 | 153.49592 | 21492 ft | 377 kts | 356° |
| 2026-05-05 23:52 | -27.34591 | 153.49574 | 21014 ft | 374 kts | 356° |
| 2026-05-05 23:52 | -27.32000 | 153.49557 | 20535 ft | 371 kts | 356° |
| 2026-05-05 23:52 | -27.29429 | 153.49539 | 20064 ft | 368 kts | 356° |
| 2026-05-05 23:53 | -27.26879 | 153.49522 | 19572 ft | 366 kts | 357° |
| 2026-05-05 23:53 | -27.24345 | 153.49505 | 19105 ft | 363 kts | 357° |
| 2026-05-05 23:53 | -27.21825 | 153.49482 | 18635 ft | 361 kts | 357° |
| 2026-05-05 23:53 | -27.19330 | 153.49453 | 18179 ft | 357 kts | 357° |
| 2026-05-05 23:54 | -27.16847 | 153.49421 | 17697 ft | 355 kts | 357° |
| 2026-05-05 23:54 | -27.14385 | 153.49391 | 17234 ft | 353 kts | 357° |
| 2026-05-05 23:54 | -27.11936 | 153.49360 | 16779 ft | 351 kts | 357° |
| 2026-05-05 23:54 | -27.09503 | 153.49330 | 16330 ft | 348 kts | 357° |
| 2026-05-05 23:55 | -27.07083 | 153.49300 | 15851 ft | 347 kts | 358° |
| 2026-05-05 23:55 | -27.04678 | 153.49272 | 15392 ft | 345 kts | 358° |
| 2026-05-05 23:55 | -27.02319 | 153.49244 | 14950 ft | 343 kts | 358° |
| 2026-05-05 23:55 | -26.99934 | 153.49215 | 14490 ft | 342 kts | 358° |
| 2026-05-05 23:56 | -26.97564 | 153.49187 | 14038 ft | 340 kts | 358° |
| 2026-05-05 23:56 | -26.95206 | 153.49159 | 13585 ft | 339 kts | 358° |
| 2026-05-05 23:56 | -26.92850 | 153.49131 | 13130 ft | 338 kts | 358° |
| 2026-05-05 23:56 | -26.90503 | 153.49103 | 12676 ft | 337 kts | 358° |
| 2026-05-05 23:57 | -26.88916 | 153.49087 | 12178 ft | 341 kts | 359° |
| 2026-05-05 23:57 | -26.85807 | 153.49066 | 11408 ft | 344 kts | 359° |
| 2026-05-05 23:57 | -26.83421 | 153.49053 | 10956 ft | 341 kts | 359° |
| 2026-05-05 23:57 | -26.81071 | 153.49040 | 10714 ft | 332 kts | 359° |
| 2026-05-05 23:58 | -26.78795 | 153.49025 | 10562 ft | 322 kts | 359° |
| 2026-05-05 23:58 | -26.76592 | 153.49010 | 10371 ft | 313 kts | 359° |
| 2026-05-05 23:58 | -26.75159 | 153.49000 | 10263 ft | 307 kts | 359° |
| 2026-05-05 23:58 | -26.73098 | 153.48614 | 10124 ft | 297 kts | 337° |
| 2026-05-05 23:59 | -26.71321 | 153.47553 | 10099 ft | 285 kts | 329° |
| 2026-05-05 23:59 | -26.69653 | 153.46380 | 9969 ft | 276 kts | 327° |
| 2026-05-05 23:59 | -26.68044 | 153.45216 | 9689 ft | 275 kts | 327° |
| 2026-05-05 23:59 | -26.66466 | 153.44074 | 9426 ft | 273 kts | 327° |
| 2026-05-06 00:00 | -26.64876 | 153.42932 | 9147 ft | 271 kts | 327° |
| 2026-05-06 00:00 | -26.63290 | 153.41797 | 8869 ft | 270 kts | 328° |
| 2026-05-06 00:00 | -26.61705 | 153.40671 | 8586 ft | 269 kts | 328° |
| 2026-05-06 00:00 | -26.60126 | 153.39554 | 8301 ft | 269 kts | 328° |
| 2026-05-06 00:01 | -26.58550 | 153.38440 | 8016 ft | 267 kts | 328° |
| 2026-05-06 00:01 | -26.56979 | 153.37332 | 7729 ft | 267 kts | 328° |
| 2026-05-06 00:01 | -26.55410 | 153.36226 | 7443 ft | 266 kts | 328° |
| 2026-05-06 00:01 | -26.53843 | 153.35125 | 7145 ft | 266 kts | 328° |
| 2026-05-06 00:02 | -26.52282 | 153.34028 | 6875 ft | 264 kts | 328° |
| 2026-05-06 00:02 | -26.50729 | 153.32934 | 6598 ft | 263 kts | 328° |
| 2026-05-06 00:02 | -26.49182 | 153.31845 | 6317 ft | 262 kts | 328° |
| 2026-05-06 00:02 | -26.47640 | 153.30760 | 6042 ft | 261 kts | 328° |
| 2026-05-06 00:03 | -26.46157 | 153.29606 | 5751 ft | 260 kts | 315° |
| 2026-05-06 00:03 | -26.45217 | 153.27905 | 5505 ft | 258 kts | 293° |
| 2026-05-06 00:03 | -26.44504 | 153.26078 | 5290 ft | 254 kts | 294° |
| 2026-05-06 00:03 | -26.43792 | 153.24289 | 5189 ft | 252 kts | 294° |
| 2026-05-06 00:04 | -26.43325 | 153.22413 | 5045 ft | 252 kts | 269° |
| 2026-05-06 00:04 | -26.43472 | 153.20499 | 4965 ft | 244 kts | 264° |
| 2026-05-06 00:04 | -26.43627 | 153.18642 | 4848 ft | 237 kts | 264° |
| 2026-05-06 00:04 | -26.43768 | 153.16842 | 4742 ft | 229 kts | 264° |
| 2026-05-06 00:05 | -26.44039 | 153.13329 | 4312 ft | 225 kts | 264° |
| 2026-05-06 00:05 | -26.44172 | 153.11585 | 4158 ft | 227 kts | 263° |
| 2026-05-06 00:05 | -26.44457 | 153.09917 | 4071 ft | 218 kts | 255° |
| 2026-05-06 00:06 | -26.44844 | 153.08238 | 3591 ft | 224 kts | 255° |
| 2026-05-06 00:06 | -26.45237 | 153.06555 | 3236 ft | 223 kts | 254° |
| 2026-05-06 00:06 | -26.45730 | 153.04945 | 2975 ft | 216 kts | 243° |
| 2026-05-06 00:06 | -26.46561 | 153.03585 | 2656 ft | 209 kts | 225° |
| 2026-05-06 00:07 | -26.47694 | 153.02600 | 2235 ft | 202 kts | 207° |
| 2026-05-06 00:07 | -26.48942 | 153.02076 | 2069 ft | 182 kts | 191° |
| 2026-05-06 00:07 | -26.50144 | 153.01942 | 1887 ft | 166 kts | 179° |
| 2026-05-06 00:07 | -26.51221 | 153.02066 | 1704 ft | 150 kts | 167° |
| 2026-05-06 00:08 | -26.52196 | 153.02410 | 1531 ft | 147 kts | 155° |
| 2026-05-06 00:08 | -26.53071 | 153.02998 | 1368 ft | 148 kts | 147° |
| 2026-05-06 00:08 | -26.53913 | 153.03672 | 1165 ft | 149 kts | 144° |
| 2026-05-06 00:08 | -26.54735 | 153.04373 | 962 ft | 149 kts | 143° |
| 2026-05-06 00:09 | -26.55546 | 153.05075 | 781 ft | 146 kts | 143° |
| 2026-05-06 00:09 | -26.56345 | 153.05767 | 572 ft | 145 kts | 144° |
| 2026-05-06 00:09 | -26.57149 | 153.06446 | 369 ft | 145 kts | 143° |
| 2026-05-06 00:09 | -26.57952 | 153.07136 | 139 ft | 145 kts | 144° |
| 2026-05-06 00:10 | -26.58733 | 153.07803 | 19 ft | 133 kts | 143° |
| 2026-05-06 00:10 | -26.59378 | 153.08357 | 16 ft | 101 kts | 142° |
| 2026-05-06 00:10 | -26.59838 | 153.08751 | 26 ft | 66 kts | 142° |
| 2026-05-06 00:10 | -26.60106 | 153.08982 | 20 ft | 31 kts | 142° |
| 2026-05-06 00:11 | -26.60260 | 153.09115 | 24 ft | 27 kts | 142° |
| 2026-05-06 00:11 | -26.60350 | 153.09177 | 23 ft | 12 kts | 172° |
| 2026-05-06 00:11 | -26.60427 | 153.09160 | 21 ft | 11 kts | 196° |
| 2026-05-06 00:11 | -26.60491 | 153.09131 | 23 ft | 9 kts | 222° |
| 2026-05-06 00:12 | -26.60524 | 153.09079 | 26 ft | 7 kts | 231° |
| 2026-05-06 00:12 | -26.60567 | 153.09056 | 25 ft | 7 kts | 205° |
| 2026-05-06 00:12 | -26.60571 | 153.09005 | 24 ft | 7 kts | 284° |
| 2026-05-06 00:12 | -26.60561 | 153.08962 | 26 ft | 2 kts | 284° |
| 2026-05-06 00:13 | -26.60559 | 153.08951 | 24 ft | 1 kts | 284° |
| 2026-05-06 00:13 | -26.60558 | 153.08948 | 24 ft | 0 kts | 284° |